sensor_id;sensor_type;location;lat;lon;timestamp;P1;durP1;ratioP1;P2;durP2;ratioP2
13933;SDS011;7039;52.168;9.866;2023-04-25T00:05:26;10.90;;;4.50;;
13933;SDS011;7039;52.168;9.866;2023-04-25T00:08:11;10.20;;;4.43;;
13933;SDS011;7039;52.168;9.866;2023-04-25T00:10:43;10.83;;;4.90;;
13933;SDS011;7039;52.168;9.866;2023-04-25T00:13:11;13.50;;;5.10;;
13933;SDS011;7039;52.168;9.866;2023-04-25T00:15:55;11.33;;;4.30;;
13933;SDS011;7039;52.168;9.866;2023-04-25T00:18:23;8.13;;;4.40;;
13933;SDS011;7039;52.168;9.866;2023-04-25T00:20:49;12.30;;;3.90;;
13933;SDS011;7039;52.168;9.866;2023-04-25T00:23:16;15.20;;;5.33;;
13933;SDS011;7039;52.168;9.866;2023-04-25T00:25:45;10.67;;;4.13;;
13933;SDS011;7039;52.168;9.866;2023-04-25T00:28:12;12.97;;;5.37;;
13933;SDS011;7039;52.168;9.866;2023-04-25T00:30:39;11.13;;;4.50;;
13933;SDS011;7039;52.168;9.866;2023-04-25T00:33:06;13.17;;;4.63;;
13933;SDS011;7039;52.168;9.866;2023-04-25T00:35:33;13.53;;;5.40;;
13933;SDS011;7039;52.168;9.866;2023-04-25T00:38:00;12.47;;;4.90;;
13933;SDS011;7039;52.168;9.866;2023-04-25T00:40:28;12.83;;;5.63;;
13933;SDS011;7039;52.168;9.866;2023-04-25T00:42:56;16.23;;;6.43;;
13933;SDS011;7039;52.168;9.866;2023-04-25T00:45:22;15.77;;;5.40;;
13933;SDS011;7039;52.168;9.866;2023-04-25T00:47:54;13.50;;;4.97;;
13933;SDS011;7039;52.168;9.866;2023-04-25T00:50:21;14.03;;;4.93;;
13933;SDS011;7039;52.168;9.866;2023-04-25T00:52:47;10.73;;;4.73;;
13933;SDS011;7039;52.168;9.866;2023-04-25T00:55:14;17.40;;;5.23;;
13933;SDS011;7039;52.168;9.866;2023-04-25T00:57:41;18.07;;;6.10;;
13933;SDS011;7039;52.168;9.866;2023-04-25T01:00:09;14.93;;;5.83;;
13933;SDS011;7039;52.168;9.866;2023-04-25T01:02:38;14.90;;;6.53;;
13933;SDS011;7039;52.168;9.866;2023-04-25T01:05:06;15.47;;;6.63;;
13933;SDS011;7039;52.168;9.866;2023-04-25T01:07:33;15.23;;;5.07;;
13933;SDS011;7039;52.168;9.866;2023-04-25T01:10:00;17.53;;;6.13;;
13933;SDS011;7039;52.168;9.866;2023-04-25T01:12:27;15.33;;;6.20;;
13933;SDS011;7039;52.168;9.866;2023-04-25T01:14:53;8.63;;;4.00;;
13933;SDS011;7039;52.168;9.866;2023-04-25T01:17:21;16.63;;;6.40;;
13933;SDS011;7039;52.168;9.866;2023-04-25T01:19:48;12.97;;;6.20;;
13933;SDS011;7039;52.168;9.866;2023-04-25T01:22:17;10.07;;;6.10;;
13933;SDS011;7039;52.168;9.866;2023-04-25T01:24:44;12.60;;;6.97;;
13933;SDS011;7039;52.168;9.866;2023-04-25T01:27:11;18.03;;;6.00;;
13933;SDS011;7039;52.168;9.866;2023-04-25T01:29:38;9.80;;;5.47;;
13933;SDS011;7039;52.168;9.866;2023-04-25T01:32:05;19.23;;;6.97;;
13933;SDS011;7039;52.168;9.866;2023-04-25T01:34:33;18.57;;;5.73;;
13933;SDS011;7039;52.168;9.866;2023-04-25T01:36:59;20.63;;;6.63;;
13933;SDS011;7039;52.168;9.866;2023-04-25T01:39:28;17.13;;;8.07;;
13933;SDS011;7039;52.168;9.866;2023-04-25T01:41:54;13.80;;;5.33;;
13933;SDS011;7039;52.168;9.866;2023-04-25T01:44:21;19.47;;;7.63;;
13933;SDS011;7039;52.168;9.866;2023-04-25T01:46:48;19.40;;;7.17;;
13933;SDS011;7039;52.168;9.866;2023-04-25T01:49:14;17.73;;;6.70;;
13933;SDS011;7039;52.168;9.866;2023-04-25T01:51:41;12.33;;;6.57;;
13933;SDS011;7039;52.168;9.866;2023-04-25T01:54:07;13.40;;;6.50;;
13933;SDS011;7039;52.168;9.866;2023-04-25T01:56:37;15.07;;;7.87;;
13933;SDS011;7039;52.168;9.866;2023-04-25T01:59:04;20.10;;;8.10;;
13933;SDS011;7039;52.168;9.866;2023-04-25T02:01:31;14.07;;;7.00;;
13933;SDS011;7039;52.168;9.866;2023-04-25T02:03:58;14.73;;;7.10;;
13933;SDS011;7039;52.168;9.866;2023-04-25T02:06:24;16.30;;;6.00;;
13933;SDS011;7039;52.168;9.866;2023-04-25T02:08:51;23.03;;;7.50;;
13933;SDS011;7039;52.168;9.866;2023-04-25T02:11:17;20.20;;;8.03;;
13933;SDS011;7039;52.168;9.866;2023-04-25T02:13:45;19.10;;;7.33;;
13933;SDS011;7039;52.168;9.866;2023-04-25T02:16:11;17.40;;;6.03;;
13933;SDS011;7039;52.168;9.866;2023-04-25T02:18:38;15.27;;;6.63;;
13933;SDS011;7039;52.168;9.866;2023-04-25T02:21:05;20.77;;;8.13;;
13933;SDS011;7039;52.168;9.866;2023-04-25T02:23:32;22.33;;;8.87;;
13933;SDS011;7039;52.168;9.866;2023-04-25T02:25:59;15.07;;;6.87;;
13933;SDS011;7039;52.168;9.866;2023-04-25T02:28:25;18.47;;;6.90;;
13933;SDS011;7039;52.168;9.866;2023-04-25T02:30:53;24.47;;;8.33;;
13933;SDS011;7039;52.168;9.866;2023-04-25T02:33:19;13.27;;;7.07;;
13933;SDS011;7039;52.168;9.866;2023-04-25T02:35:46;20.73;;;8.13;;
13933;SDS011;7039;52.168;9.866;2023-04-25T02:38:13;16.60;;;7.77;;
13933;SDS011;7039;52.168;9.866;2023-04-25T02:40:39;18.97;;;8.43;;
13933;SDS011;7039;52.168;9.866;2023-04-25T02:43:06;15.03;;;7.47;;
13933;SDS011;7039;52.168;9.866;2023-04-25T02:45:33;14.57;;;7.37;;
13933;SDS011;7039;52.168;9.866;2023-04-25T02:48:01;16.23;;;8.03;;
13933;SDS011;7039;52.168;9.866;2023-04-25T02:50:28;12.87;;;6.30;;
13933;SDS011;7039;52.168;9.866;2023-04-25T02:52:54;16.47;;;6.87;;
13933;SDS011;7039;52.168;9.866;2023-04-25T02:55:21;20.17;;;7.83;;
13933;SDS011;7039;52.168;9.866;2023-04-25T02:57:47;21.40;;;8.20;;
13933;SDS011;7039;52.168;9.866;2023-04-25T03:00:14;17.77;;;7.67;;
13933;SDS011;7039;52.168;9.866;2023-04-25T03:02:41;16.60;;;6.67;;
13933;SDS011;7039;52.168;9.866;2023-04-25T03:05:08;15.33;;;6.63;;
13933;SDS011;7039;52.168;9.866;2023-04-25T03:07:35;12.53;;;6.50;;
13933;SDS011;7039;52.168;9.866;2023-04-25T03:10:01;11.80;;;5.97;;
13933;SDS011;7039;52.168;9.866;2023-04-25T03:12:28;17.07;;;7.30;;
13933;SDS011;7039;52.168;9.866;2023-04-25T03:14:54;16.73;;;5.93;;
13933;SDS011;7039;52.168;9.866;2023-04-25T03:17:21;14.73;;;5.90;;
13933;SDS011;7039;52.168;9.866;2023-04-25T03:19:47;20.67;;;5.57;;
13933;SDS011;7039;52.168;9.866;2023-04-25T03:22:15;19.67;;;4.87;;
13933;SDS011;7039;52.168;9.866;2023-04-25T03:24:42;17.90;;;5.17;;
13933;SDS011;7039;52.168;9.866;2023-04-25T03:27:08;18.87;;;4.37;;
13933;SDS011;7039;52.168;9.866;2023-04-25T03:29:34;14.87;;;4.00;;
13933;SDS011;7039;52.168;9.866;2023-04-25T03:32:01;21.67;;;4.97;;
13933;SDS011;7039;52.168;9.866;2023-04-25T03:34:27;23.10;;;4.60;;
13933;SDS011;7039;52.168;9.866;2023-04-25T03:36:54;20.07;;;4.60;;
13933;SDS011;7039;52.168;9.866;2023-04-25T03:39:21;20.33;;;4.43;;
13933;SDS011;7039;52.168;9.866;2023-04-25T03:41:48;18.83;;;4.40;;
13933;SDS011;7039;52.168;9.866;2023-04-25T03:44:14;17.43;;;4.17;;
13933;SDS011;7039;52.168;9.866;2023-04-25T03:46:41;18.17;;;4.07;;
13933;SDS011;7039;52.168;9.866;2023-04-25T03:49:07;19.23;;;4.93;;
13933;SDS011;7039;52.168;9.866;2023-04-25T03:51:34;17.77;;;4.73;;
13933;SDS011;7039;52.168;9.866;2023-04-25T03:54:01;15.97;;;4.93;;
13933;SDS011;7039;52.168;9.866;2023-04-25T03:56:29;14.40;;;4.17;;
13933;SDS011;7039;52.168;9.866;2023-04-25T03:58:56;22.47;;;4.57;;
13933;SDS011;7039;52.168;9.866;2023-04-25T04:01:22;18.43;;;3.80;;
13933;SDS011;7039;52.168;9.866;2023-04-25T04:03:49;16.73;;;4.10;;
13933;SDS011;7039;52.168;9.866;2023-04-25T04:06:15;15.03;;;4.47;;
13933;SDS011;7039;52.168;9.866;2023-04-25T04:08:42;21.67;;;5.07;;
13933;SDS011;7039;52.168;9.866;2023-04-25T04:11:09;13.60;;;3.90;;
13933;SDS011;7039;52.168;9.866;2023-04-25T04:13:37;17.83;;;4.20;;
13933;SDS011;7039;52.168;9.866;2023-04-25T04:16:03;18.83;;;5.17;;
13933;SDS011;7039;52.168;9.866;2023-04-25T04:18:30;14.40;;;4.17;;
13933;SDS011;7039;52.168;9.866;2023-04-25T04:20:58;24.90;;;4.63;;
13933;SDS011;7039;52.168;9.866;2023-04-25T04:23:24;18.73;;;4.90;;
13933;SDS011;7039;52.168;9.866;2023-04-25T04:25:52;13.50;;;4.80;;
13933;SDS011;7039;52.168;9.866;2023-04-25T04:28:19;14.10;;;4.87;;
13933;SDS011;7039;52.168;9.866;2023-04-25T04:30:46;18.27;;;4.57;;
13933;SDS011;7039;52.168;9.866;2023-04-25T04:33:17;18.27;;;5.27;;
13933;SDS011;7039;52.168;9.866;2023-04-25T04:35:44;21.70;;;4.63;;
13933;SDS011;7039;52.168;9.866;2023-04-25T04:38:11;29.20;;;5.10;;
13933;SDS011;7039;52.168;9.866;2023-04-25T04:40:40;13.67;;;5.27;;
13933;SDS011;7039;52.168;9.866;2023-04-25T04:43:06;17.37;;;3.27;;
13933;SDS011;7039;52.168;9.866;2023-04-25T04:45:33;22.67;;;4.30;;
13933;SDS011;7039;52.168;9.866;2023-04-25T04:48:01;19.87;;;4.30;;
13933;SDS011;7039;52.168;9.866;2023-04-25T04:50:28;23.80;;;4.93;;
13933;SDS011;7039;52.168;9.866;2023-04-25T04:52:54;25.80;;;4.70;;
13933;SDS011;7039;52.168;9.866;2023-04-25T04:55:21;26.33;;;4.60;;
13933;SDS011;7039;52.168;9.866;2023-04-25T04:57:47;25.20;;;4.70;;
13933;SDS011;7039;52.168;9.866;2023-04-25T05:00:14;24.30;;;4.70;;
13933;SDS011;7039;52.168;9.866;2023-04-25T05:02:41;30.80;;;5.13;;
13933;SDS011;7039;52.168;9.866;2023-04-25T05:05:09;19.73;;;5.47;;
13933;SDS011;7039;52.168;9.866;2023-04-25T05:07:35;15.13;;;4.23;;
13933;SDS011;7039;52.168;9.866;2023-04-25T05:10:02;27.40;;;4.33;;
13933;SDS011;7039;52.168;9.866;2023-04-25T05:12:29;25.73;;;5.77;;
13933;SDS011;7039;52.168;9.866;2023-04-25T05:14:56;20.37;;;3.90;;
13933;SDS011;7039;52.168;9.866;2023-04-25T05:17:22;18.67;;;3.60;;
13933;SDS011;7039;52.168;9.866;2023-04-25T05:19:49;31.37;;;4.63;;
13933;SDS011;7039;52.168;9.866;2023-04-25T05:22:17;19.60;;;4.23;;
13933;SDS011;7039;52.168;9.866;2023-04-25T05:24:43;25.03;;;4.60;;
13933;SDS011;7039;52.168;9.866;2023-04-25T05:27:10;16.83;;;3.80;;
13933;SDS011;7039;52.168;9.866;2023-04-25T05:29:36;18.20;;;3.63;;
13933;SDS011;7039;52.168;9.866;2023-04-25T05:32:04;20.70;;;4.83;;
13933;SDS011;7039;52.168;9.866;2023-04-25T05:34:32;18.07;;;3.60;;
13933;SDS011;7039;52.168;9.866;2023-04-25T05:36:59;20.53;;;3.67;;
13933;SDS011;7039;52.168;9.866;2023-04-25T05:39:26;19.27;;;4.80;;
13933;SDS011;7039;52.168;9.866;2023-04-25T05:41:53;16.43;;;3.83;;
13933;SDS011;7039;52.168;9.866;2023-04-25T05:44:19;21.73;;;4.07;;
13933;SDS011;7039;52.168;9.866;2023-04-25T05:46:46;14.97;;;4.37;;
13933;SDS011;7039;52.168;9.866;2023-04-25T05:49:12;16.27;;;3.53;;
13933;SDS011;7039;52.168;9.866;2023-04-25T05:51:39;17.53;;;3.57;;
13933;SDS011;7039;52.168;9.866;2023-04-25T05:54:05;23.37;;;2.47;;
13933;SDS011;7039;52.168;9.866;2023-04-25T05:56:33;19.93;;;3.80;;
13933;SDS011;7039;52.168;9.866;2023-04-25T05:58:59;17.47;;;3.67;;
13933;SDS011;7039;52.168;9.866;2023-04-25T06:01:26;18.10;;;3.07;;
13933;SDS011;7039;52.168;9.866;2023-04-25T06:03:52;19.17;;;3.33;;
13933;SDS011;7039;52.168;9.866;2023-04-25T06:06:19;13.00;;;3.20;;
13933;SDS011;7039;52.168;9.866;2023-04-25T06:08:45;10.10;;;2.50;;
13933;SDS011;7039;52.168;9.866;2023-04-25T06:11:12;14.37;;;3.30;;
13933;SDS011;7039;52.168;9.866;2023-04-25T06:13:40;16.60;;;3.53;;
13933;SDS011;7039;52.168;9.866;2023-04-25T06:16:06;17.93;;;3.00;;
13933;SDS011;7039;52.168;9.866;2023-04-25T06:18:33;24.33;;;3.63;;
13933;SDS011;7039;52.168;9.866;2023-04-25T06:20:59;19.00;;;2.87;;
13933;SDS011;7039;52.168;9.866;2023-04-25T06:23:26;19.27;;;3.47;;
13933;SDS011;7039;52.168;9.866;2023-04-25T06:25:52;13.50;;;2.40;;
13933;SDS011;7039;52.168;9.866;2023-04-25T06:28:19;18.70;;;3.13;;
13933;SDS011;7039;52.168;9.866;2023-04-25T06:30:48;12.53;;;3.33;;
13933;SDS011;7039;52.168;9.866;2023-04-25T06:33:15;9.83;;;3.13;;
13933;SDS011;7039;52.168;9.866;2023-04-25T06:35:41;9.33;;;3.00;;
13933;SDS011;7039;52.168;9.866;2023-04-25T06:38:08;16.03;;;2.93;;
13933;SDS011;7039;52.168;9.866;2023-04-25T06:40:34;18.90;;;3.13;;
13933;SDS011;7039;52.168;9.866;2023-04-25T06:43:01;12.40;;;3.13;;
13933;SDS011;7039;52.168;9.866;2023-04-25T06:45:27;21.03;;;2.90;;
13933;SDS011;7039;52.168;9.866;2023-04-25T06:47:55;21.57;;;3.07;;
13933;SDS011;7039;52.168;9.866;2023-04-25T06:50:21;15.27;;;3.07;;
13933;SDS011;7039;52.168;9.866;2023-04-25T06:52:48;18.53;;;3.20;;
13933;SDS011;7039;52.168;9.866;2023-04-25T06:55:14;17.90;;;3.57;;
13933;SDS011;7039;52.168;9.866;2023-04-25T06:57:41;21.10;;;3.47;;
13933;SDS011;7039;52.168;9.866;2023-04-25T07:00:07;14.73;;;3.30;;
13933;SDS011;7039;52.168;9.866;2023-04-25T07:02:34;19.50;;;2.77;;
13933;SDS011;7039;52.168;9.866;2023-04-25T07:05:03;13.07;;;2.87;;
13933;SDS011;7039;52.168;9.866;2023-04-25T07:07:30;14.30;;;2.77;;
13933;SDS011;7039;52.168;9.866;2023-04-25T07:09:56;16.63;;;4.33;;
13933;SDS011;7039;52.168;9.866;2023-04-25T07:12:23;13.63;;;2.77;;
13933;SDS011;7039;52.168;9.866;2023-04-25T07:14:49;17.47;;;4.17;;
13933;SDS011;7039;52.168;9.866;2023-04-25T07:17:16;12.50;;;2.73;;
13933;SDS011;7039;52.168;9.866;2023-04-25T07:19:42;8.40;;;1.90;;
13933;SDS011;7039;52.168;9.866;2023-04-25T07:22:10;15.77;;;3.10;;
13933;SDS011;7039;52.168;9.866;2023-04-25T07:24:37;12.97;;;3.10;;
13933;SDS011;7039;52.168;9.866;2023-04-25T07:27:03;22.10;;;2.93;;
13933;SDS011;7039;52.168;9.866;2023-04-25T07:29:30;15.27;;;2.17;;
13933;SDS011;7039;52.168;9.866;2023-04-25T07:31:56;6.50;;;2.10;;
13933;SDS011;7039;52.168;9.866;2023-04-25T07:34:23;22.27;;;2.97;;
13933;SDS011;7039;52.168;9.866;2023-04-25T07:36:49;13.87;;;2.77;;
13933;SDS011;7039;52.168;9.866;2023-04-25T07:39:17;7.67;;;2.40;;
13933;SDS011;7039;52.168;9.866;2023-04-25T07:41:43;12.40;;;2.30;;
13933;SDS011;7039;52.168;9.866;2023-04-25T07:44:10;11.10;;;2.30;;
13933;SDS011;7039;52.168;9.866;2023-04-25T07:46:36;12.63;;;2.63;;
13933;SDS011;7039;52.168;9.866;2023-04-25T07:49:03;10.93;;;2.33;;
13933;SDS011;7039;52.168;9.866;2023-04-25T07:51:29;15.07;;;2.70;;
13933;SDS011;7039;52.168;9.866;2023-04-25T07:53:56;10.70;;;3.07;;
13933;SDS011;7039;52.168;9.866;2023-04-25T07:56:24;12.10;;;2.30;;
13933;SDS011;7039;52.168;9.866;2023-04-25T07:58:50;10.10;;;1.53;;
13933;SDS011;7039;52.168;9.866;2023-04-25T08:01:17;5.40;;;2.20;;
13933;SDS011;7039;52.168;9.866;2023-04-25T08:03:45;6.13;;;1.97;;
13933;SDS011;7039;52.168;9.866;2023-04-25T08:06:11;6.27;;;2.00;;
13933;SDS011;7039;52.168;9.866;2023-04-25T08:08:37;11.50;;;2.97;;
13933;SDS011;7039;52.168;9.866;2023-04-25T08:11:04;7.97;;;2.13;;
13933;SDS011;7039;52.168;9.866;2023-04-25T08:13:32;10.27;;;2.67;;
13933;SDS011;7039;52.168;9.866;2023-04-25T08:15:59;8.53;;;2.13;;
13933;SDS011;7039;52.168;9.866;2023-04-25T08:18:25;16.37;;;3.33;;
13933;SDS011;7039;52.168;9.866;2023-04-25T08:20:52;6.27;;;1.90;;
13933;SDS011;7039;52.168;9.866;2023-04-25T08:23:18;10.87;;;2.00;;
13933;SDS011;7039;52.168;9.866;2023-04-25T08:25:45;7.23;;;2.13;;
13933;SDS011;7039;52.168;9.866;2023-04-25T08:28:11;10.43;;;1.97;;
13933;SDS011;7039;52.168;9.866;2023-04-25T08:30:39;5.33;;;1.80;;
13933;SDS011;7039;52.168;9.866;2023-04-25T08:33:05;6.60;;;1.77;;
13933;SDS011;7039;52.168;9.866;2023-04-25T08:35:32;8.73;;;1.97;;
13933;SDS011;7039;52.168;9.866;2023-04-25T08:37:59;9.30;;;2.13;;
13933;SDS011;7039;52.168;9.866;2023-04-25T08:40:26;12.27;;;2.20;;
13933;SDS011;7039;52.168;9.866;2023-04-25T08:42:55;13.27;;;2.20;;
13933;SDS011;7039;52.168;9.866;2023-04-25T08:45:23;10.73;;;2.23;;
13933;SDS011;7039;52.168;9.866;2023-04-25T08:47:53;7.10;;;1.67;;
13933;SDS011;7039;52.168;9.866;2023-04-25T08:50:22;10.77;;;1.90;;
13933;SDS011;7039;52.168;9.866;2023-04-25T08:52:51;6.77;;;1.50;;
13933;SDS011;7039;52.168;9.866;2023-04-25T08:55:20;7.73;;;1.73;;
13933;SDS011;7039;52.168;9.866;2023-04-25T08:57:48;6.13;;;1.83;;
13933;SDS011;7039;52.168;9.866;2023-04-25T09:00:15;9.60;;;1.93;;
13933;SDS011;7039;52.168;9.866;2023-04-25T09:02:43;9.70;;;1.50;;
13933;SDS011;7039;52.168;9.866;2023-04-25T09:05:11;9.57;;;2.30;;
13933;SDS011;7039;52.168;9.866;2023-04-25T09:07:39;9.00;;;2.03;;
13933;SDS011;7039;52.168;9.866;2023-04-25T09:10:05;8.60;;;2.63;;
13933;SDS011;7039;52.168;9.866;2023-04-25T09:12:32;10.97;;;2.27;;
13933;SDS011;7039;52.168;9.866;2023-04-25T09:15:03;10.30;;;1.83;;
13933;SDS011;7039;52.168;9.866;2023-04-25T09:17:30;12.27;;;1.90;;
13933;SDS011;7039;52.168;9.866;2023-04-25T09:20:05;10.13;;;2.53;;
13933;SDS011;7039;52.168;9.866;2023-04-25T09:22:33;14.83;;;2.37;;
13933;SDS011;7039;52.168;9.866;2023-04-25T09:25:02;12.43;;;2.40;;
13933;SDS011;7039;52.168;9.866;2023-04-25T09:27:29;13.40;;;2.27;;
13933;SDS011;7039;52.168;9.866;2023-04-25T09:29:56;10.63;;;2.83;;
13933;SDS011;7039;52.168;9.866;2023-04-25T09:32:23;6.90;;;1.87;;
13933;SDS011;7039;52.168;9.866;2023-04-25T09:34:51;9.07;;;1.93;;
13933;SDS011;7039;52.168;9.866;2023-04-25T09:37:19;11.30;;;2.57;;
13933;SDS011;7039;52.168;9.866;2023-04-25T09:39:49;5.73;;;1.73;;
13933;SDS011;7039;52.168;9.866;2023-04-25T09:42:17;11.63;;;2.07;;
13933;SDS011;7039;52.168;9.866;2023-04-25T09:44:44;8.07;;;2.67;;
13933;SDS011;7039;52.168;9.866;2023-04-25T09:47:12;12.33;;;1.70;;
13933;SDS011;7039;52.168;9.866;2023-04-25T09:49:41;10.13;;;2.37;;
13933;SDS011;7039;52.168;9.866;2023-04-25T09:52:09;8.07;;;2.73;;
13933;SDS011;7039;52.168;9.866;2023-04-25T09:54:39;6.77;;;2.07;;
13933;SDS011;7039;52.168;9.866;2023-04-25T09:57:09;5.57;;;1.90;;
13933;SDS011;7039;52.168;9.866;2023-04-25T09:59:38;7.43;;;2.00;;
13933;SDS011;7039;52.168;9.866;2023-04-25T10:02:08;6.13;;;2.20;;
13933;SDS011;7039;52.168;9.866;2023-04-25T10:04:36;6.50;;;1.13;;
13933;SDS011;7039;52.168;9.866;2023-04-25T10:07:05;8.43;;;1.57;;
13933;SDS011;7039;52.168;9.866;2023-04-25T10:09:32;4.30;;;1.47;;
13933;SDS011;7039;52.168;9.866;2023-04-25T10:12:02;5.40;;;1.53;;
13933;SDS011;7039;52.168;9.866;2023-04-25T10:14:31;4.33;;;1.40;;
13933;SDS011;7039;52.168;9.866;2023-04-25T10:16:58;6.27;;;1.50;;
13933;SDS011;7039;52.168;9.866;2023-04-25T10:19:25;4.83;;;1.40;;
13933;SDS011;7039;52.168;9.866;2023-04-25T10:22:07;5.17;;;1.90;;
13933;SDS011;7039;52.168;9.866;2023-04-25T10:24:39;4.67;;;1.53;;
13933;SDS011;7039;52.168;9.866;2023-04-25T10:27:06;8.77;;;2.03;;
13933;SDS011;7039;52.168;9.866;2023-04-25T10:29:35;15.47;;;1.80;;
13933;SDS011;7039;52.168;9.866;2023-04-25T10:32:01;3.83;;;1.13;;
13933;SDS011;7039;52.168;9.866;2023-04-25T10:34:37;8.67;;;1.83;;
13933;SDS011;7039;52.168;9.866;2023-04-25T10:37:10;10.63;;;2.77;;
13933;SDS011;7039;52.168;9.866;2023-04-25T10:39:38;8.53;;;1.70;;
13933;SDS011;7039;52.168;9.866;2023-04-25T10:42:06;9.13;;;2.17;;
13933;SDS011;7039;52.168;9.866;2023-04-25T10:44:36;3.13;;;1.63;;
13933;SDS011;7039;52.168;9.866;2023-04-25T10:47:03;9.97;;;1.67;;
13933;SDS011;7039;52.168;9.866;2023-04-25T10:49:33;11.13;;;1.47;;
13933;SDS011;7039;52.168;9.866;2023-04-25T10:52:16;10.87;;;2.30;;
13933;SDS011;7039;52.168;9.866;2023-04-25T10:54:47;10.10;;;1.93;;
13933;SDS011;7039;52.168;9.866;2023-04-25T10:57:30;7.80;;;1.80;;
13933;SDS011;7039;52.168;9.866;2023-04-25T11:00:09;6.67;;;1.13;;
13933;SDS011;7039;52.168;9.866;2023-04-25T11:02:40;4.27;;;1.70;;
13933;SDS011;7039;52.168;9.866;2023-04-25T11:05:08;7.13;;;1.77;;
13933;SDS011;7039;52.168;9.866;2023-04-25T11:07:37;7.87;;;1.70;;
13933;SDS011;7039;52.168;9.866;2023-04-25T11:10:10;3.30;;;1.30;;
13933;SDS011;7039;52.168;9.866;2023-04-25T11:12:36;8.30;;;2.07;;
13933;SDS011;7039;52.168;9.866;2023-04-25T11:15:03;7.03;;;1.60;;
13933;SDS011;7039;52.168;9.866;2023-04-25T11:17:33;4.80;;;1.30;;
13933;SDS011;7039;52.168;9.866;2023-04-25T11:20:00;4.30;;;1.43;;
13933;SDS011;7039;52.168;9.866;2023-04-25T11:22:31;10.40;;;1.63;;
13933;SDS011;7039;52.168;9.866;2023-04-25T11:24:57;8.07;;;2.73;;
13933;SDS011;7039;52.168;9.866;2023-04-25T11:27:24;5.37;;;1.83;;
13933;SDS011;7039;52.168;9.866;2023-04-25T11:29:50;8.23;;;1.90;;
13933;SDS011;7039;52.168;9.866;2023-04-25T11:32:17;14.83;;;2.17;;
13933;SDS011;7039;52.168;9.866;2023-04-25T11:34:45;5.07;;;1.80;;
13933;SDS011;7039;52.168;9.866;2023-04-25T11:37:12;8.17;;;1.87;;
13933;SDS011;7039;52.168;9.866;2023-04-25T11:39:42;8.20;;;2.00;;
13933;SDS011;7039;52.168;9.866;2023-04-25T11:42:10;10.83;;;1.80;;
13933;SDS011;7039;52.168;9.866;2023-04-25T11:44:37;4.80;;;1.43;;
13933;SDS011;7039;52.168;9.866;2023-04-25T11:47:04;7.43;;;2.33;;
13933;SDS011;7039;52.168;9.866;2023-04-25T11:49:31;9.43;;;2.13;;
13933;SDS011;7039;52.168;9.866;2023-04-25T11:51:59;14.80;;;2.50;;
13933;SDS011;7039;52.168;9.866;2023-04-25T11:54:26;9.47;;;2.33;;
13933;SDS011;7039;52.168;9.866;2023-04-25T11:56:52;7.37;;;1.90;;
13933;SDS011;7039;52.168;9.866;2023-04-25T11:59:22;5.13;;;1.83;;
13933;SDS011;7039;52.168;9.866;2023-04-25T12:01:50;5.97;;;1.93;;
13933;SDS011;7039;52.168;9.866;2023-04-25T12:04:18;10.67;;;2.20;;
13933;SDS011;7039;52.168;9.866;2023-04-25T12:06:46;10.87;;;2.83;;
13933;SDS011;7039;52.168;9.866;2023-04-25T12:09:15;8.40;;;2.37;;
13933;SDS011;7039;52.168;9.866;2023-04-25T12:11:43;5.63;;;1.57;;
13933;SDS011;7039;52.168;9.866;2023-04-25T12:14:11;8.88;;;2.50;;
13933;SDS011;7039;52.168;9.866;2023-04-25T12:16:42;11.67;;;2.23;;
13933;SDS011;7039;52.168;9.866;2023-04-25T12:19:13;10.53;;;2.93;;
13933;SDS011;7039;52.168;9.866;2023-04-25T12:21:39;5.27;;;1.80;;
13933;SDS011;7039;52.168;9.866;2023-04-25T12:24:10;3.00;;;1.57;;
13933;SDS011;7039;52.168;9.866;2023-04-25T12:26:48;6.47;;;1.60;;
13933;SDS011;7039;52.168;9.866;2023-04-25T12:29:17;10.77;;;1.73;;
13933;SDS011;7039;52.168;9.866;2023-04-25T12:31:44;10.33;;;1.67;;
13933;SDS011;7039;52.168;9.866;2023-04-25T12:34:11;6.77;;;1.60;;
13933;SDS011;7039;52.168;9.866;2023-04-25T12:36:37;4.77;;;1.70;;
13933;SDS011;7039;52.168;9.866;2023-04-25T12:39:04;4.93;;;1.60;;
13933;SDS011;7039;52.168;9.866;2023-04-25T12:41:31;3.80;;;1.17;;
13933;SDS011;7039;52.168;9.866;2023-04-25T12:43:59;3.27;;;1.30;;
13933;SDS011;7039;52.168;9.866;2023-04-25T12:46:26;7.60;;;1.50;;
13933;SDS011;7039;52.168;9.866;2023-04-25T12:48:52;6.03;;;1.67;;
13933;SDS011;7039;52.168;9.866;2023-04-25T12:51:20;4.20;;;1.50;;
13933;SDS011;7039;52.168;9.866;2023-04-25T12:53:49;3.70;;;1.10;;
13933;SDS011;7039;52.168;9.866;2023-04-25T12:56:16;4.07;;;1.30;;
13933;SDS011;7039;52.168;9.866;2023-04-25T12:58:43;8.17;;;1.80;;
13933;SDS011;7039;52.168;9.866;2023-04-25T13:01:11;5.67;;;1.40;;
13933;SDS011;7039;52.168;9.866;2023-04-25T13:03:38;5.10;;;1.00;;
13933;SDS011;7039;52.168;9.866;2023-04-25T13:06:05;4.17;;;0.90;;
13933;SDS011;7039;52.168;9.866;2023-04-25T13:08:32;6.87;;;1.20;;
13933;SDS011;7039;52.168;9.866;2023-04-25T13:10:59;4.83;;;1.40;;
13933;SDS011;7039;52.168;9.866;2023-04-25T13:13:26;8.73;;;1.60;;
13933;SDS011;7039;52.168;9.866;2023-04-25T13:15:53;7.07;;;2.27;;
13933;SDS011;7039;52.168;9.866;2023-04-25T13:18:21;12.80;;;1.33;;
13933;SDS011;7039;52.168;9.866;2023-04-25T13:20:51;6.30;;;1.43;;
13933;SDS011;7039;52.168;9.866;2023-04-25T13:23:17;3.07;;;1.53;;
13933;SDS011;7039;52.168;9.866;2023-04-25T13:25:45;4.70;;;1.20;;
13933;SDS011;7039;52.168;9.866;2023-04-25T13:28:11;4.43;;;1.40;;
13933;SDS011;7039;52.168;9.866;2023-04-25T13:30:38;9.27;;;2.13;;
13933;SDS011;7039;52.168;9.866;2023-04-25T13:33:04;7.43;;;1.47;;
13933;SDS011;7039;52.168;9.866;2023-04-25T13:35:33;7.07;;;1.53;;
13933;SDS011;7039;52.168;9.866;2023-04-25T13:38:00;5.00;;;1.30;;
13933;SDS011;7039;52.168;9.866;2023-04-25T13:40:27;6.10;;;0.97;;
13933;SDS011;7039;52.168;9.866;2023-04-25T13:42:53;3.97;;;1.30;;
13933;SDS011;7039;52.168;9.866;2023-04-25T13:45:20;1.97;;;1.10;;
13933;SDS011;7039;52.168;9.866;2023-04-25T13:47:47;3.27;;;1.10;;
13933;SDS011;7039;52.168;9.866;2023-04-25T13:50:14;6.07;;;1.07;;
13933;SDS011;7039;52.168;9.866;2023-04-25T13:52:42;6.57;;;1.67;;
13933;SDS011;7039;52.168;9.866;2023-04-25T13:55:10;4.03;;;1.20;;
13933;SDS011;7039;52.168;9.866;2023-04-25T13:57:36;5.03;;;1.13;;
13933;SDS011;7039;52.168;9.866;2023-04-25T14:00:03;5.93;;;1.40;;
13933;SDS011;7039;52.168;9.866;2023-04-25T14:02:33;5.30;;;1.23;;
13933;SDS011;7039;52.168;9.866;2023-04-25T14:05:00;6.00;;;1.37;;
13933;SDS011;7039;52.168;9.866;2023-04-25T14:07:26;5.30;;;1.43;;
13933;SDS011;7039;52.168;9.866;2023-04-25T14:09:54;3.50;;;1.23;;
13933;SDS011;7039;52.168;9.866;2023-04-25T14:12:22;1.43;;;1.07;;
13933;SDS011;7039;52.168;9.866;2023-04-25T14:14:48;2.23;;;1.43;;
13933;SDS011;7039;52.168;9.866;2023-04-25T14:17:15;4.47;;;1.40;;
13933;SDS011;7039;52.168;9.866;2023-04-25T14:19:41;2.80;;;1.27;;
13933;SDS011;7039;52.168;9.866;2023-04-25T14:22:10;3.93;;;1.20;;
13933;SDS011;7039;52.168;9.866;2023-04-25T14:24:37;3.07;;;1.37;;
13933;SDS011;7039;52.168;9.866;2023-04-25T14:27:05;3.17;;;1.50;;
13933;SDS011;7039;52.168;9.866;2023-04-25T14:29:31;7.23;;;1.60;;
13933;SDS011;7039;52.168;9.866;2023-04-25T14:31:58;7.70;;;1.40;;
13933;SDS011;7039;52.168;9.866;2023-04-25T14:34:25;3.90;;;1.30;;
13933;SDS011;7039;52.168;9.866;2023-04-25T14:36:51;4.43;;;2.10;;
13933;SDS011;7039;52.168;9.866;2023-04-25T14:39:18;5.10;;;1.57;;
13933;SDS011;7039;52.168;9.866;2023-04-25T14:41:45;6.20;;;1.83;;
13933;SDS011;7039;52.168;9.866;2023-04-25T14:44:13;2.83;;;1.77;;
13933;SDS011;7039;52.168;9.866;2023-04-25T14:46:40;4.63;;;1.70;;
13933;SDS011;7039;52.168;9.866;2023-04-25T14:49:06;4.47;;;1.87;;
13933;SDS011;7039;52.168;9.866;2023-04-25T14:51:33;5.00;;;1.80;;
13933;SDS011;7039;52.168;9.866;2023-04-25T14:53:59;4.23;;;1.47;;
13933;SDS011;7039;52.168;9.866;2023-04-25T14:56:26;7.50;;;1.20;;
13933;SDS011;7039;52.168;9.866;2023-04-25T14:58:52;3.30;;;1.30;;